createdAt,value
2023-03-21T00:00:23.161Z,5.3
2023-03-21T00:05:25.853Z,5.4
2023-03-21T00:10:40.106Z,5.5
2023-03-21T00:11:36.713Z,5.5
2023-03-21T00:15:22.629Z,5.6
2023-03-21T00:20:30.130Z,5.6
2023-03-21T00:25:32.703Z,5.7
2023-03-21T00:30:20.775Z,5.7
2023-03-21T00:35:57.495Z,5.8
2023-03-21T00:40:40.424Z,5.7
2023-03-21T00:45:22.436Z,5.8
2023-03-21T00:50:28.021Z,5.7
2023-03-21T00:55:17.342Z,5.7
2023-03-21T01:00:24.712Z,5.7
2023-03-21T01:05:28.545Z,5.8
2023-03-21T01:10:17.882Z,5.9
2023-03-21T01:15:23.744Z,5.8
2023-03-21T01:20:29.733Z,5.8
2023-03-21T01:25:22.681Z,5.6
2023-03-21T01:30:28.657Z,5.5
2023-03-21T01:35:37.439Z,5.4
2023-03-21T01:40:20.454Z,5.3
2023-03-21T01:45:26.482Z,5.4
2023-03-21T01:50:33.626Z,5.5
2023-03-21T01:55:21.547Z,5.6
2023-03-21T02:00:31.797Z,5.7
2023-03-21T02:05:33.340Z,5.7
2023-03-21T02:10:21.816Z,5.7
2023-03-21T02:15:28.089Z,5.4
2023-03-21T02:20:17.152Z,5.2
2023-03-21T02:25:23.292Z,4.9
2023-03-21T02:30:45.829Z,4.8
2023-03-21T02:35:17.617Z,4.7
2023-03-21T02:40:25.013Z,4.7
2023-03-21T02:45:29.768Z,4.8
2023-03-21T02:50:18.972Z,4.9
2023-03-21T02:55:24.833Z,5.0
2023-03-21T03:00:33.894Z,5.1
2023-03-21T03:05:21.617Z,5.3
2023-03-21T03:10:26.515Z,5.3
2023-03-21T03:15:32.529Z,5.4
2023-03-21T03:20:23.264Z,5.3
2023-03-21T03:25:41.732Z,5.3
2023-03-21T03:30:42.264Z,5.3
2023-03-21T03:35:21.861Z,5.3
2023-03-21T03:40:28.139Z,5.2
2023-03-21T03:45:17.160Z,5.1
2023-03-21T03:50:23.023Z,5.0
2023-03-21T03:55:29.361Z,4.9
2023-03-21T04:00:22.028Z,4.8
2023-03-21T04:05:24.187Z,4.8
2023-03-21T04:10:29.801Z,4.8
2023-03-21T04:15:18.816Z,4.7
2023-03-21T04:20:36.987Z,4.6
2023-03-21T04:25:34.045Z,4.6
2023-03-21T04:30:20.082Z,4.5
2023-03-21T04:35:26.368Z,4.5
2023-03-21T04:40:32.362Z,4.6
2023-03-21T04:45:21.506Z,4.5
2023-03-21T04:50:27.321Z,4.5
2023-03-21T04:55:33.598Z,4.6
2023-03-21T05:00:25.725Z,4.4
2023-03-21T05:05:28.335Z,4.3
2023-03-21T05:10:16.887Z,4.2
2023-03-21T05:15:23.161Z,4.1
2023-03-21T05:20:29.279Z,3.9
2023-03-21T05:25:18.368Z,3.7
2023-03-21T05:30:23.778Z,3.6
2023-03-21T05:35:32.952Z,3.5
2023-03-21T05:40:20.433Z,3.4
2023-03-21T05:45:26.827Z,3.3
2023-03-21T05:50:31.161Z,3.4
2023-03-21T05:55:19.992Z,3.4
2023-03-21T06:00:30.682Z,3.4
2023-03-21T06:05:32.208Z,3.4
2023-03-21T06:10:20.935Z,3.7
2023-03-21T06:15:26.897Z,4.6
2023-03-21T06:20:32.841Z,5.3
2023-03-21T06:25:23.196Z,6.2
2023-03-21T06:30:27.924Z,7.0
2023-03-21T06:35:17.170Z,7.0
2023-03-21T06:40:23.112Z,7.0
2023-03-21T06:45:29.315Z,7.3
2023-03-21T06:50:18.071Z,7.5
2023-03-21T06:55:24.429Z,7.8
2023-03-21T07:00:32.848Z,7.9
2023-03-21T07:05:18.635Z,7.8
2023-03-21T07:10:24.714Z,8.3
2023-03-21T07:15:30.923Z,8.2
2023-03-21T07:20:19.998Z,7.9
2023-03-21T07:25:29.234Z,7.8
2023-03-21T07:30:18.769Z,8.0
2023-03-21T07:35:21.476Z,8.3
2023-03-21T07:40:27.296Z,8.3
2023-03-21T07:45:33.678Z,8.3
2023-03-21T07:50:25.459Z,8.4
2023-03-21T07:55:28.872Z,8.6
2023-03-21T08:00:22.178Z,8.5
2023-03-21T08:05:23.138Z,8.4
2023-03-21T08:10:29.292Z,8.4
2023-03-21T08:15:18.012Z,8.9
2023-03-21T08:20:24.557Z,9.5
2023-03-21T08:25:30.173Z,9.7
2023-03-21T08:30:18.320Z,9.9
2023-03-21T08:35:24.664Z,9.8
2023-03-21T08:40:30.898Z,10.1
2023-03-21T08:45:20.580Z,10.4
2023-03-21T08:50:25.856Z,10.0
2023-03-21T08:55:33.293Z,10.5
2023-03-21T09:00:20.997Z,10.5
2023-03-21T09:05:30.346Z,10.3
2023-03-21T09:10:33.168Z,10.3
2023-03-21T09:15:23.917Z,10.4
2023-03-21T09:20:28.605Z,10.5
2023-03-21T09:25:17.540Z,10.9
2023-03-21T09:30:25.977Z,10.7
2023-03-21T09:35:29.242Z,10.4
2023-03-21T09:40:18.139Z,11.1
2023-03-21T09:45:24.253Z,11.5
2023-03-21T09:50:30.353Z,11.5
2023-03-21T09:55:22.475Z,11.5
2023-03-21T10:00:29.994Z,11.5
2023-03-21T10:05:34.513Z,11.4
2023-03-21T10:10:20.205Z,12.4
2023-03-21T10:15:26.362Z,12.3
2023-03-21T10:20:32.740Z,11.9
2023-03-21T10:25:25.305Z,12.2
2023-03-21T10:30:44.591Z,12.4
2023-03-21T10:35:35.212Z,12.1
2023-03-21T10:40:23.702Z,11.4
2023-03-21T10:45:28.311Z,12.3
2023-03-21T10:50:17.687Z,12.2
2023-03-21T10:55:23.470Z,12.1
2023-03-21T11:00:32.494Z,12.6
2023-03-21T11:05:24.216Z,12.6
2023-03-21T11:10:28.911Z,12.8
2023-03-21T11:15:30.496Z,13.0
2023-03-21T11:20:21.959Z,13.2
2023-03-21T11:25:26.312Z,13.0
2023-03-21T11:30:31.410Z,13.7
2023-03-21T11:35:19.977Z,13.6
2023-03-21T11:40:26.288Z,13.3
2023-03-21T11:45:33.792Z,13.4
2023-03-21T11:50:21.159Z,13.9
2023-03-21T11:55:26.916Z,13.6
2023-03-21T12:00:36.375Z,13.8
2023-03-21T12:05:21.849Z,14.1
2023-03-21T12:10:30.810Z,14.1
2023-03-21T12:15:16.676Z,14.0
2023-03-21T12:20:24.302Z,13.8
2023-03-21T12:25:28.898Z,13.8
2023-03-21T12:30:18.219Z,14.4
2023-03-21T12:35:24.389Z,14.5
2023-03-21T12:40:30.344Z,14.2
2023-03-21T12:45:46.529Z,14.6
2023-03-21T12:50:28.412Z,14.3
2023-03-21T12:55:31.717Z,14.7
2023-03-21T13:00:23.161Z,15.1
2023-03-21T13:05:26.099Z,14.6
2023-03-21T13:10:32.237Z,14.9
2023-03-21T13:15:24.244Z,14.9
2023-03-21T13:20:27.276Z,15.0
2023-03-21T13:25:33.074Z,15.1
2023-03-21T13:30:21.532Z,15.0
2023-03-21T13:35:34.068Z,15.1
2023-03-21T13:40:16.689Z,15.3
2023-03-21T13:45:22.932Z,15.0
2023-03-21T13:50:28.695Z,15.2
2023-03-21T13:55:18.069Z,15.6
2023-03-21T14:00:27.633Z,15.8
2023-03-21T14:05:47.633Z,15.9
2023-03-21T14:10:19.527Z,15.3
2023-03-21T14:15:25.506Z,15.2
2023-03-21T14:20:31.711Z,14.8
2023-03-21T14:25:20.431Z,15.2
2023-03-21T14:30:27.165Z,15.4
2023-03-21T14:35:18.093Z,15.4
2023-03-21T14:40:21.444Z,15.1
2023-03-21T14:45:27.483Z,15.3
2023-03-21T14:50:33.485Z,15.3
2023-03-21T14:55:25.659Z,15.1
2023-03-21T15:00:31.501Z,15.1
2023-03-21T15:05:17.530Z,15.1
2023-03-21T15:10:23.098Z,15.0
2023-03-21T15:15:28.859Z,15.0
2023-03-21T15:20:19.516Z,14.9
2023-03-21T15:25:23.988Z,14.8
2023-03-21T15:30:29.821Z,15.0
2023-03-21T15:35:21.799Z,15.1
2023-03-21T15:40:24.818Z,14.8
2023-03-21T15:45:30.964Z,14.8
2023-03-21T15:50:19.833Z,14.8
2023-03-21T15:55:25.916Z,14.7
2023-03-21T16:00:36.575Z,14.6
2023-03-21T16:05:21.125Z,14.5
2023-03-21T16:10:26.946Z,14.4
2023-03-21T16:15:32.831Z,14.3
2023-03-21T16:20:23.253Z,14.2
2023-03-21T16:25:28.310Z,14.3
2023-03-21T16:30:17.074Z,14.1
2023-03-21T16:35:23.876Z,14.0
2023-03-21T16:40:29.360Z,14.0
2023-03-21T16:45:18.238Z,13.9
2023-03-21T16:50:24.584Z,13.7
2023-03-21T16:55:30.408Z,13.7
2023-03-21T17:00:22.660Z,13.5
2023-03-21T17:05:25.248Z,13.3
2023-03-21T17:10:31.404Z,13.2
2023-03-21T17:15:20.154Z,13.0
2023-03-21T17:20:27.354Z,12.8
2023-03-21T17:25:32.455Z,12.6
2023-03-21T17:30:20.667Z,12.3
2023-03-21T17:35:26.862Z,12.1
2023-03-21T17:40:32.587Z,11.8
2023-03-21T17:45:21.546Z,11.6
2023-03-21T17:50:29.656Z,11.4
2023-03-21T17:55:16.711Z,11.3
2023-03-21T18:00:26.097Z,11.2
2023-03-21T18:05:29.465Z,11.1
2023-03-21T18:10:18.181Z,11.0
2023-03-21T18:15:24.462Z,10.9
2023-03-21T18:20:50.498Z,10.9
2023-03-21T18:25:19.397Z,10.8
2023-03-21T18:30:45.103Z,10.8
2023-03-21T18:35:33.951Z,10.7
2023-03-21T18:40:21.334Z,10.6
2023-03-21T18:45:26.284Z,10.5
2023-03-21T18:50:32.151Z,10.4
2023-03-21T18:55:29.465Z,10.4
2023-03-21T19:00:31.975Z,10.4
2023-03-21T19:05:32.902Z,10.4
2023-03-21T19:10:21.627Z,10.4
2023-03-21T19:15:27.663Z,10.3
2023-03-21T19:20:17.159Z,10.3
2023-03-21T19:25:22.759Z,10.2
2023-03-21T19:30:29.698Z,10.2
2023-03-21T19:35:17.587Z,10.3
2023-03-21T19:40:23.615Z,10.3
2023-03-21T19:45:29.874Z,10.4
2023-03-21T19:51:25.838Z,10.3
2023-03-21T19:55:24.596Z,10.1
2023-03-21T20:00:34.420Z,10.0
2023-03-21T20:05:20.224Z,9.9
2023-03-21T20:10:26.078Z,9.9
2023-03-21T20:15:32.346Z,9.9
2023-03-21T20:20:22.706Z,9.7
2023-03-21T20:25:27.227Z,9.8
2023-03-21T20:30:32.806Z,9.7
2023-03-21T20:35:55.295Z,9.5
2023-03-21T20:40:27.607Z,9.4
2023-03-21T20:45:17.825Z,9.3
2023-03-21T20:50:23.135Z,9.2
2023-03-21T20:55:28.819Z,9.2
2023-03-21T21:00:21.300Z,9.1
2023-03-21T21:05:31.411Z,9.1
2023-03-21T21:10:30.963Z,9.0
2023-03-21T21:15:19.511Z,9.0
2023-03-21T21:20:26.030Z,8.9
2023-03-21T21:25:31.557Z,8.9
2023-03-21T21:30:20.049Z,8.8
2023-03-21T21:35:26.193Z,8.8
2023-03-21T21:40:32.101Z,8.9
2023-03-21T21:45:20.957Z,8.8
2023-03-21T21:50:27.315Z,8.7
2023-03-21T21:55:33.155Z,8.6
2023-03-21T22:00:26.038Z,8.6
2023-03-21T22:05:27.726Z,8.6
2023-03-21T22:10:16.861Z,8.6
2023-03-21T22:15:22.591Z,8.6
2023-03-21T22:20:28.932Z,8.5
2023-03-21T22:25:17.767Z,8.4
2023-03-21T22:30:24.442Z,8.4
2023-03-21T22:35:30.537Z,8.4
2023-03-21T22:40:19.520Z,8.2
2023-03-21T22:45:25.626Z,8.3
2023-03-21T22:50:31.435Z,8.3
2023-03-21T22:55:20.450Z,8.3
2023-03-21T23:00:26.941Z,8.1
2023-03-21T23:05:32.005Z,8.1
2023-03-21T23:10:21.061Z,8.0
2023-03-21T23:15:26.947Z,7.9
2023-03-21T23:20:36.213Z,7.8
2023-03-21T23:25:24.981Z,7.7
2023-03-21T23:30:27.834Z,7.6
2023-03-21T23:35:16.668Z,7.5
2023-03-21T23:40:24.075Z,7.4
2023-03-21T23:45:29.008Z,7.4
2023-03-21T23:50:17.920Z,7.4
2023-03-21T23:55:25.796Z,7.4
